LOT3942 EPPO-EPWA
Flight info
| Callsign | LOT3942 |
|---|---|
| Flight time | N/A |
| Altitude | 22000 |
| Route | OBOKU DCT DOSIX DCT BIMPA |
| Aircraft | B38M/M-SDE1FGHILORVWXY/HB1 |
Departure
| Time | 2026-04-22 12:40 |
|---|---|
| Airport | Poznań-Ławica Airport (EPPO) |
Arrival
| Time | N/A |
|---|---|
| Airport | Warsaw Chopin Airport (EPWA) |
| Time | Latitude | Longitude | Altitude | Speed | Heading |
|---|---|---|---|---|---|
| 2026-04-22 12:26 | 52.41588 | 16.82588 | 301 ft | 0 kts | 184° |
| 2026-04-22 12:27 | 52.41594 | 16.82588 | 301 ft | 2 kts | 182° |
| 2026-04-22 12:27 | 52.41610 | 16.82590 | 302 ft | 2 kts | 185° |
| 2026-04-22 12:28 | 52.41620 | 16.82592 | 302 ft | 2 kts | 185° |
| 2026-04-22 12:28 | 52.41637 | 16.82594 | 302 ft | 2 kts | 183° |
| 2026-04-22 12:28 | 52.41653 | 16.82596 | 303 ft | 2 kts | 192° |
| 2026-04-22 12:28 | 52.41668 | 16.82607 | 303 ft | 2 kts | 224° |
| 2026-04-22 12:29 | 52.41675 | 16.82630 | 305 ft | 2 kts | 272° |
| 2026-04-22 12:29 | 52.41673 | 16.82657 | 304 ft | 2 kts | 276° |
| 2026-04-22 12:29 | 52.41672 | 16.82683 | 304 ft | 2 kts | 273° |
| 2026-04-22 12:29 | 52.41670 | 16.82710 | 304 ft | 2 kts | 283° |
| 2026-04-22 12:30 | 52.41687 | 16.82740 | 305 ft | 2 kts | 182° |
| 2026-04-22 12:30 | 52.41704 | 16.82743 | 304 ft | 2 kts | 182° |
| 2026-04-22 12:30 | 52.41715 | 16.82744 | 304 ft | 0 kts | 185° |
| 2026-04-22 12:31 | 52.41716 | 16.82744 | 304 ft | 0 kts | 185° |
| 2026-04-22 12:33 | 52.41715 | 16.82744 | 304 ft | 0 kts | 185° |
| 2026-04-22 12:33 | 52.41705 | 16.82742 | 304 ft | 3 kts | 185° |
| 2026-04-22 12:34 | 52.41677 | 16.82754 | 303 ft | 6 kts | 133° |
| 2026-04-22 12:34 | 52.41665 | 16.82836 | 303 ft | 9 kts | 98° |
| 2026-04-22 12:34 | 52.41650 | 16.82951 | 302 ft | 12 kts | 103° |
| 2026-04-22 12:34 | 52.41631 | 16.83090 | 302 ft | 14 kts | 102° |
| 2026-04-22 12:35 | 52.41608 | 16.83256 | 303 ft | 16 kts | 103° |
| 2026-04-22 12:35 | 52.41582 | 16.83444 | 304 ft | 15 kts | 103° |
| 2026-04-22 12:35 | 52.41572 | 16.83518 | 303 ft | 4 kts | 101° |
| 2026-04-22 12:35 | 52.41569 | 16.83582 | 304 ft | 8 kts | 92° |
| 2026-04-22 12:36 | 52.41565 | 16.83696 | 299 ft | 12 kts | 93° |
| 2026-04-22 12:36 | 52.41561 | 16.83836 | 297 ft | 11 kts | 88° |
| 2026-04-22 12:36 | 52.41598 | 16.83930 | 298 ft | 11 kts | 48° |
| 2026-04-22 12:36 | 52.41657 | 16.83996 | 299 ft | 11 kts | 20° |
| 2026-04-22 12:37 | 52.41717 | 16.84032 | 299 ft | 0 kts | 21° |
| 2026-04-22 12:37 | 52.41725 | 16.84037 | 300 ft | 2 kts | 20° |
| 2026-04-22 12:38 | 52.41742 | 16.84047 | 301 ft | 3 kts | 20° |
| 2026-04-22 12:38 | 52.41764 | 16.84061 | 299 ft | 3 kts | 20° |
| 2026-04-22 12:38 | 52.41781 | 16.84070 | 303 ft | 2 kts | 19° |
| 2026-04-22 12:38 | 52.41789 | 16.84074 | 300 ft | 2 kts | 16° |
| 2026-04-22 12:39 | 52.41825 | 16.84051 | 305 ft | 11 kts | 306° |
| 2026-04-22 12:39 | 52.41932 | 16.83519 | 309 ft | 62 kts | 288° |
| 2026-04-22 12:39 | 52.42136 | 16.82459 | 311 ft | 130 kts | 287° |
| 2026-04-22 12:40 | 52.42463 | 16.80832 | 579 ft | 160 kts | 289° |
| 2026-04-22 12:40 | 52.42844 | 16.79064 | 1329 ft | 167 kts | 291° |
| 2026-04-22 12:40 | 52.43069 | 16.78003 | 1848 ft | 171 kts | 291° |
| 2026-04-22 12:40 | 52.43454 | 16.76195 | 2531 ft | 182 kts | 291° |
| 2026-04-22 12:41 | 52.43722 | 16.74992 | 2780 ft | 198 kts | 292° |
| 2026-04-22 12:41 | 52.44192 | 16.72736 | 3353 ft | 214 kts | 290° |
| 2026-04-22 12:41 | 52.44639 | 16.70358 | 4140 ft | 225 kts | 289° |
| 2026-04-22 12:41 | 52.45073 | 16.67784 | 4739 ft | 242 kts | 290° |
| 2026-04-22 12:42 | 52.45544 | 16.65098 | 5621 ft | 245 kts | 290° |
| 2026-04-22 12:42 | 52.46031 | 16.62398 | 6461 ft | 251 kts | 291° |
| 2026-04-22 12:42 | 52.46546 | 16.59637 | 7350 ft | 250 kts | 291° |
| 2026-04-22 12:42 | 52.47046 | 16.56876 | 8174 ft | 258 kts | 290° |
| 2026-04-22 12:43 | 52.47456 | 16.53976 | 8967 ft | 266 kts | 279° |
| 2026-04-22 12:43 | 52.47146 | 16.50888 | 9591 ft | 287 kts | 248° |
| 2026-04-22 12:43 | 52.45961 | 16.48278 | 10562 ft | 290 kts | 223° |
| 2026-04-22 12:43 | 52.44178 | 16.46560 | 11045 ft | 309 kts | 198° |
| 2026-04-22 12:44 | 52.42754 | 16.46124 | 11303 ft | 321 kts | 180° |
| 2026-04-22 12:44 | 52.40539 | 16.46785 | 11762 ft | 331 kts | 153° |
| 2026-04-22 12:44 | 52.38675 | 16.48953 | 12352 ft | 331 kts | 127° |
| 2026-04-22 12:44 | 52.37320 | 16.53327 | 13335 ft | 325 kts | 96° |
| 2026-04-22 12:45 | 52.37210 | 16.56990 | 14105 ft | 325 kts | 85° |
| 2026-04-22 12:45 | 52.36916 | 16.60695 | 14894 ft | 334 kts | 105° |
| 2026-04-22 12:45 | 52.36102 | 16.64262 | 15750 ft | 337 kts | 104° |
| 2026-04-22 12:45 | 52.35605 | 16.66733 | 16255 ft | 339 kts | 103° |
| 2026-04-22 12:46 | 52.34880 | 16.70408 | 17088 ft | 341 kts | 103° |
| 2026-04-22 12:46 | 52.34156 | 16.74125 | 17863 ft | 344 kts | 103° |
| 2026-04-22 12:46 | 52.33429 | 16.77865 | 18632 ft | 347 kts | 103° |
| 2026-04-22 12:46 | 52.32697 | 16.81636 | 19301 ft | 349 kts | 103° |
| 2026-04-22 12:47 | 52.31962 | 16.85421 | 19988 ft | 351 kts | 103° |
| 2026-04-22 12:47 | 52.31223 | 16.89223 | 20713 ft | 350 kts | 103° |
| 2026-04-22 12:47 | 52.30609 | 16.93032 | 21522 ft | 343 kts | 94° |
| 2026-04-22 12:47 | 52.30313 | 16.96911 | 21920 ft | 346 kts | 94° |
| 2026-04-22 12:48 | 52.29983 | 17.00764 | 22077 ft | 340 kts | 94° |
| 2026-04-22 12:48 | 52.29654 | 17.04577 | 22208 ft | 338 kts | 94° |
| 2026-04-22 12:48 | 52.29328 | 17.08377 | 22224 ft | 337 kts | 94° |
| 2026-04-22 12:48 | 52.29000 | 17.12164 | 22194 ft | 337 kts | 94° |
| 2026-04-22 12:49 | 52.28672 | 17.15951 | 22200 ft | 337 kts | 94° |
| 2026-04-22 12:49 | 52.28343 | 17.19741 | 22194 ft | 337 kts | 94° |
| 2026-04-22 12:49 | 52.28012 | 17.23530 | 22199 ft | 337 kts | 94° |
| 2026-04-22 12:49 | 52.27680 | 17.27315 | 22192 ft | 337 kts | 94° |
| 2026-04-22 12:50 | 52.27351 | 17.31056 | 22190 ft | 337 kts | 94° |
| 2026-04-22 12:50 | 52.27013 | 17.34889 | 22191 ft | 337 kts | 94° |
| 2026-04-22 12:50 | 52.26682 | 17.38626 | 22204 ft | 337 kts | 94° |
| 2026-04-22 12:50 | 52.26346 | 17.42407 | 22198 ft | 337 kts | 94° |
| 2026-04-22 12:51 | 52.26007 | 17.46196 | 22186 ft | 337 kts | 94° |
| 2026-04-22 12:51 | 52.25669 | 17.49979 | 22184 ft | 337 kts | 94° |
| 2026-04-22 12:51 | 52.25328 | 17.53764 | 22202 ft | 337 kts | 95° |
| 2026-04-22 12:51 | 52.24987 | 17.57548 | 22196 ft | 337 kts | 94° |
| 2026-04-22 12:52 | 52.24644 | 17.61329 | 22190 ft | 337 kts | 94° |
| 2026-04-22 12:52 | 52.24300 | 17.65111 | 22187 ft | 337 kts | 94° |
| 2026-04-22 12:52 | 52.23955 | 17.68889 | 22188 ft | 337 kts | 94° |
| 2026-04-22 12:52 | 52.23609 | 17.72672 | 22186 ft | 337 kts | 94° |
| 2026-04-22 12:53 | 52.23288 | 17.76447 | 22182 ft | 335 kts | 90° |
| 2026-04-22 12:53 | 52.23474 | 17.80183 | 22219 ft | 330 kts | 77° |
| 2026-04-22 12:53 | 52.23810 | 17.83893 | 22167 ft | 331 kts | 79° |
| 2026-04-22 12:53 | 52.24127 | 17.87620 | 22175 ft | 331 kts | 79° |
| 2026-04-22 12:54 | 52.24452 | 17.91340 | 22184 ft | 331 kts | 79° |
| 2026-04-22 12:54 | 52.24782 | 17.95056 | 22185 ft | 331 kts | 79° |
| 2026-04-22 12:54 | 52.25114 | 17.98768 | 22184 ft | 331 kts | 79° |
| 2026-04-22 12:54 | 52.25426 | 18.02499 | 22184 ft | 331 kts | 79° |
| 2026-04-22 12:55 | 52.25733 | 18.06221 | 22196 ft | 331 kts | 79° |
| 2026-04-22 12:55 | 52.26040 | 18.09941 | 22192 ft | 331 kts | 79° |
| 2026-04-22 12:55 | 52.26347 | 18.13663 | 22190 ft | 331 kts | 79° |
| 2026-04-22 12:55 | 52.26652 | 18.17379 | 22185 ft | 331 kts | 79° |
| 2026-04-22 12:56 | 52.26956 | 18.21101 | 22187 ft | 331 kts | 79° |
| 2026-04-22 12:56 | 52.27259 | 18.24823 | 22187 ft | 331 kts | 79° |
| 2026-04-22 12:56 | 52.27561 | 18.28542 | 22181 ft | 331 kts | 79° |
| 2026-04-22 12:56 | 52.27859 | 18.32218 | 22180 ft | 331 kts | 79° |
| 2026-04-22 12:57 | 52.28158 | 18.35940 | 22185 ft | 331 kts | 79° |
| 2026-04-22 12:57 | 52.28457 | 18.39660 | 22178 ft | 331 kts | 79° |
| 2026-04-22 12:57 | 52.28754 | 18.43385 | 22183 ft | 331 kts | 79° |
| 2026-04-22 12:57 | 52.29051 | 18.47109 | 22162 ft | 330 kts | 79° |
| 2026-04-22 12:58 | 52.29345 | 18.50826 | 22167 ft | 329 kts | 79° |
| 2026-04-22 12:58 | 52.29638 | 18.54535 | 22170 ft | 329 kts | 80° |
| 2026-04-22 12:58 | 52.29929 | 18.58241 | 22168 ft | 329 kts | 80° |
| 2026-04-22 12:58 | 52.30220 | 18.61952 | 22192 ft | 329 kts | 79° |
| 2026-04-22 12:59 | 52.30509 | 18.65659 | 22182 ft | 329 kts | 79° |
| 2026-04-22 12:59 | 52.30797 | 18.69373 | 22173 ft | 330 kts | 79° |
| 2026-04-22 12:59 | 52.31084 | 18.73089 | 22169 ft | 330 kts | 79° |
| 2026-04-22 12:59 | 52.31370 | 18.76807 | 22168 ft | 330 kts | 80° |
| 2026-04-22 13:00 | 52.31655 | 18.80524 | 22169 ft | 330 kts | 80° |
| 2026-04-22 13:00 | 52.31939 | 18.84240 | 22169 ft | 329 kts | 80° |
| 2026-04-22 13:00 | 52.32222 | 18.87958 | 22169 ft | 329 kts | 79° |
| 2026-04-22 13:00 | 52.32514 | 18.91671 | 22168 ft | 330 kts | 80° |
| 2026-04-22 13:01 | 52.32754 | 18.94933 | 22163 ft | 329 kts | 80° |